Time;durP1;ratioP1;P1;durP2;ratioP2;P2;SDS_P1;SDS_P2;PMS_P1;PMS_P2;Temp;Humidity;BMP_temperature;BMP_pressure;BME280_temperature;BME280_humidity;BME280_pressure;Samples;Min_cycle;Max_cycle;Signal;HPM_P1;HPM_P2
2021/10/27 00:01:27;;;;;;;6.20;2.58;;;3.20;73.70;;;;;;6250911;22;20000;-88
2021/10/27 00:03:53;;;;;;;6.00;2.83;;;3.20;73.80;;;;;;6251433;22;19996;-88
2021/10/27 00:06:19;;;;;;;6.18;3.65;;;3.20;73.80;;;;;;6251194;22;19995;-89
2021/10/27 00:08:45;;;;;;;3.42;2.42;;;3.20;74.10;;;;;;6251274;22;19995;-88
2021/10/27 00:11:11;;;;;;;5.82;3.67;;;3.20;74.00;;;;;;6252272;22;20004;-88
2021/10/27 00:13:37;;;;;;;5.60;2.47;;;3.20;74.00;;;;;;6251131;22;20012;-89
2021/10/27 00:16:03;;;;;;;3.75;2.47;;;3.10;74.20;;;;;;6252112;22;20022;-88
2021/10/27 00:18:29;;;;;;;6.15;3.28;;;3.10;74.20;;;;;;6251258;22;19991;-88
2021/10/27 00:20:55;;;;;;;5.45;3.03;;;3.10;74.30;;;;;;6250987;22;20004;-88
2021/10/27 00:23:21;;;;;;;3.60;2.70;;;3.10;74.30;;;;;;6252290;22;20003;-88
2021/10/27 00:25:46;;;;;;;4.20;2.35;;;3.00;74.40;;;;;;6250915;22;19996;-88
2021/10/27 00:28:12;;;;;;;5.88;2.83;;;3.00;74.60;;;;;;6278293;22;19991;-88
2021/10/27 00:30:38;;;;;;;6.55;2.95;;;3.00;74.80;;;;;;6251212;22;20057;-89
2021/10/27 00:33:04;;;;;;;4.47;2.58;;;2.90;74.80;;;;;;6251216;22;19995;-88
2021/10/27 00:35:29;;;;;;;4.53;3.03;;;2.90;75.00;;;;;;6251116;22;19999;-88
2021/10/27 00:37:56;;;;;;;7.63;2.70;;;2.80;75.10;;;;;;6278828;22;19991;-88
2021/10/27 00:40:21;;;;;;;4.53;2.50;;;2.80;75.20;;;;;;6251023;22;20042;-89
2021/10/27 00:42:47;;;;;;;4.45;2.70;;;2.80;75.40;;;;;;6250953;22;19991;-88
2021/10/27 00:45:13;;;;;;;8.10;2.55;;;2.70;75.50;;;;;;6251867;22;20002;-88
2021/10/27 00:47:39;;;;;;;4.15;2.70;;;2.70;75.60;;;;;;6250832;22;20314;-88
2021/10/27 00:50:05;;;;;;;4.97;3.42;;;2.70;75.80;;;;;;6251324;22;20000;-88
2021/10/27 00:52:31;;;;;;;7.47;3.17;;;2.70;76.00;;;;;;6250996;22;20031;-88
2021/10/27 00:54:57;;;;;;;5.95;2.92;;;2.60;76.10;;;;;;6251058;22;19999;-88
2021/10/27 00:57:24;;;;;;;5.00;2.92;;;2.60;76.30;;;;;;6250852;22;20299;-88
2021/10/27 00:59:51;;;;;;;6.03;3.00;;;2.60;77.00;;;;;;6250774;22;19995;-89
2021/10/27 01:02:18;;;;;;;3.72;2.47;;;2.50;76.50;;;;;;6277747;22;20415;-88
2021/10/27 01:04:45;;;;;;;6.63;2.88;;;2.50;76.50;;;;;;6250753;22;19993;-88
2021/10/27 01:07:11;;;;;;;5.97;3.35;;;2.50;76.70;;;;;;6277818;22;19995;-88
2021/10/27 01:09:38;;;;;;;13.75;4.10;;;2.50;77.00;;;;;;6251403;22;20426;-88
2021/10/27 01:12:05;;;;;;;6.05;3.22;;;2.50;77.00;;;;;;6250572;22;20411;-87
2021/10/27 01:14:39;;;;;;;8.57;3.83;;;2.40;77.20;;;;;;6251428;22;20066;-88
2021/10/27 01:17:05;;;;;;;8.35;3.65;;;2.40;77.30;;;;;;6277902;22;20307;-88
2021/10/27 01:19:52;;;;;;;8.98;4.10;;;2.40;77.50;;;;;;6251400;22;20033;-88
2021/10/27 01:22:21;;;;;;;6.13;3.15;;;2.40;77.60;;;;;;6250346;22;20007;-88
2021/10/27 01:24:47;;;;;;;7.25;3.28;;;2.40;77.60;;;;;;6250593;22;20000;-88
2021/10/27 01:27:13;;;;;;;7.35;3.78;;;2.40;77.80;;;;;;6251767;22;20050;-88
2021/10/27 01:29:39;;;;;;;7.30;3.45;;;2.30;77.90;;;;;;6250611;22;19988;-88
2021/10/27 01:32:07;;;;;;;8.60;4.60;;;2.30;78.30;;;;;;6250572;22;20003;-88
2021/10/27 01:34:33;;;;;;;10.18;5.40;;;2.30;78.20;;;;;;6250634;22;20446;-88
2021/10/27 01:37:00;;;;;;;9.13;4.53;;;2.30;78.40;;;;;;6250723;22;19996;-88
2021/10/27 01:39:26;;;;;;;6.55;4.07;;;2.30;78.40;;;;;;6250659;22;19996;-88
2021/10/27 01:41:52;;;;;;;8.55;5.00;;;2.30;78.70;;;;;;6277558;22;20006;-88
2021/10/27 01:44:17;;;;;;;7.10;4.50;;;2.30;78.60;;;;;;6277651;22;20067;-88
2021/10/27 01:46:43;;;;;;;14.45;6.45;;;2.30;78.90;;;;;;6250278;22;20054;-88
2021/10/27 01:49:11;;;;;;;14.45;5.57;;;2.30;79.00;;;;;;6250654;22;20354;-88
2021/10/27 01:51:37;;;;;;;9.60;4.85;;;2.30;78.90;;;;;;6250625;22;20308;-88
2021/10/27 01:54:05;;;;;;;7.72;5.57;;;2.30;78.90;;;;;;6250563;22;20075;-88
2021/10/27 01:56:32;;;;;;;9.57;4.63;;;2.30;79.00;;;;;;6251098;22;20003;-88
2021/10/27 01:58:57;;;;;;;11.35;4.90;;;2.30;79.10;;;;;;6250608;22;20060;-88
2021/10/27 02:01:23;;;;;;;13.07;5.32;;;2.30;79.10;;;;;;6250767;22;20035;-88
2021/10/27 02:03:49;;;;;;;13.07;6.38;;;2.30;79.20;;;;;;6250444;22;19992;-88
2021/10/27 02:06:16;;;;;;;7.00;3.50;;;2.30;79.40;;;;;;6250317;22;20041;-87
2021/10/27 02:08:42;;;;;;;6.93;3.78;;;2.30;79.40;;;;;;6251233;22;20007;-88
2021/10/27 02:11:09;;;;;;;9.23;3.95;;;2.30;79.60;;;;;;6251157;22;20030;-88
2021/10/27 02:13:36;;;;;;;6.80;3.72;;;2.30;79.60;;;;;;6277406;22;20041;-88
2021/10/27 02:16:01;;;;;;;7.60;3.88;;;2.30;79.70;;;;;;6251233;22;19999;-88
2021/10/27 02:18:27;;;;;;;4.25;2.92;;;2.30;79.60;;;;;;6250442;22;20007;-88
2021/10/27 02:20:53;;;;;;;8.77;4.30;;;2.30;79.60;;;;;;6250713;22;20004;-88
2021/10/27 02:23:19;;;;;;;7.13;3.65;;;2.30;80.20;;;;;;6250767;22;19995;-88
2021/10/27 02:25:45;;;;;;;6.18;3.40;;;2.30;80.30;;;;;;6252044;22;20027;-88
2021/10/27 02:28:11;;;;;;;9.25;3.95;;;2.30;80.00;;;;;;6253176;22;20004;-88
2021/10/27 02:30:39;;;;;;;9.10;4.75;;;2.30;80.30;;;;;;6252248;22;20025;-88
2021/10/27 02:33:05;;;;;;;6.90;3.30;;;2.30;80.30;;;;;;6252145;22;20078;-88
2021/10/27 02:35:31;;;;;;;6.80;2.58;;;2.30;80.40;;;;;;6252915;22;20012;-88
2021/10/27 02:37:57;;;;;;;5.13;3.20;;;2.30;80.50;;;;;;6252038;22;20045;-88
2021/10/27 02:40:24;;;;;;;7.55;3.30;;;2.30;80.60;;;;;;6252193;22;20490;-88
2021/10/27 02:42:51;;;;;;;9.50;3.45;;;2.30;80.60;;;;;;6252015;22;19999;-88
2021/10/27 02:45:17;;;;;;;6.88;4.15;;;2.30;80.70;;;;;;6252209;22;20000;-88
2021/10/27 02:47:44;;;;;;;6.93;4.22;;;2.30;81.10;;;;;;6252162;22;20303;-88
2021/10/27 02:50:12;;;;;;;8.50;4.15;;;2.30;80.90;;;;;;6279168;22;20003;-88
2021/10/27 02:52:38;;;;;;;6.25;4.28;;;2.30;81.00;;;;;;6252662;22;19992;-88
2021/10/27 02:55:05;;;;;;;6.72;4.55;;;2.30;81.20;;;;;;6252041;22;20027;-88
2021/10/27 02:57:31;;;;;;;9.13;4.75;;;2.20;81.20;;;;;;6252027;22;20106;-88
2021/10/27 02:59:57;;;;;;;10.23;5.47;;;2.20;81.30;;;;;;6278922;22;19995;-88
2021/10/27 03:02:22;;;;;;;8.30;5.47;;;2.20;81.40;;;;;;6252732;22;19999;-88
2021/10/27 03:04:48;;;;;;;10.55;6.20;;;2.20;81.60;;;;;;6251444;22;20090;-88
2021/10/27 03:07:14;;;;;;;8.43;5.57;;;2.20;81.70;;;;;;6251901;22;19999;-88
2021/10/27 03:09:40;;;;;;;9.93;5.25;;;2.20;81.80;;;;;;6251793;22;20003;-89
2021/10/27 03:12:06;;;;;;;10.52;5.38;;;2.20;82.00;;;;;;6279293;22;19995;-88
2021/10/27 03:14:32;;;;;;;10.80;4.97;;;2.20;82.40;;;;;;6251722;22;20007;-88
2021/10/27 03:16:58;;;;;;;7.80;5.43;;;2.20;82.40;;;;;;6252235;22;20027;-88
2021/10/27 03:19:24;;;;;;;7.95;4.43;;;2.10;82.50;;;;;;6278487;22;20304;-88
2021/10/27 03:21:49;;;;;;;9.23;4.85;;;2.10;82.70;;;;;;6251833;22;20387;-88
2021/10/27 03:24:16;;;;;;;6.25;4.47;;;2.10;82.80;;;;;;6251826;22;20303;-88
2021/10/27 03:26:43;;;;;;;9.20;4.15;;;2.10;83.10;;;;;;6251641;22;20050;-88
2021/10/27 03:29:09;;;;;;;5.20;3.30;;;2.20;83.30;;;;;;6251705;22;20049;-88
2021/10/27 03:31:35;;;;;;;8.80;4.30;;;2.20;83.40;;;;;;6251629;22;20004;-88
2021/10/27 03:34:01;;;;;;;9.07;5.50;;;2.10;83.30;;;;;;6251319;22;19992;-88
2021/10/27 03:36:26;;;;;;;11.57;5.57;;;2.10;83.70;;;;;;6252353;22;20003;-88
2021/10/27 03:38:52;;;;;;;8.68;5.20;;;2.10;83.70;;;;;;6251544;22;20285;-89
2021/10/27 03:41:18;;;;;;;12.80;5.78;;;2.10;83.60;;;;;;6251741;22;20395;-88
2021/10/27 03:43:44;;;;;;;9.35;4.78;;;2.10;83.90;;;;;;6251745;22;19991;-88
2021/10/27 03:46:11;;;;;;;7.53;4.60;;;2.10;84.00;;;;;;6261523;22;19995;-88
2021/10/27 03:48:38;;;;;;;12.48;6.15;;;2.10;84.00;;;;;;6301415;22;20010;-88
2021/10/27 03:51:05;;;;;;;11.43;6.00;;;2.10;84.30;;;;;;6275989;22;20051;-88
2021/10/27 03:53:30;;;;;;;11.60;5.00;;;2.10;84.60;;;;;;6276270;22;20000;-88
2021/10/27 03:55:56;;;;;;;12.50;4.38;;;2.10;84.70;;;;;;6259238;22;20002;-88
2021/10/27 03:58:22;;;;;;;9.02;5.35;;;2.10;84.80;;;;;;6251578;22;20042;-88
2021/10/27 04:00:48;;;;;;;9.10;5.13;;;2.10;85.10;;;;;;6251476;22;20007;-88
2021/10/27 04:03:21;;;;;;;14.48;5.55;;;2.10;85.10;;;;;;6251776;22;20019;-89
2021/10/27 04:05:46;;;;;;;9.57;4.70;;;2.00;85.20;;;;;;6252478;22;20003;-88
2021/10/27 04:08:12;;;;;;;8.32;5.15;;;2.00;85.30;;;;;;6251243;22;19992;-89
2021/10/27 04:10:38;;;;;;;11.07;5.80;;;2.00;85.50;;;;;;6251420;22;20010;-88
2021/10/27 04:13:04;;;;;;;9.32;3.88;;;2.00;85.70;;;;;;6251535;22;20303;-88
2021/10/27 04:15:30;;;;;;;9.32;4.85;;;2.00;85.80;;;;;;6251342;22;20012;-88
2021/10/27 04:17:55;;;;;;;16.95;6.43;;;2.00;86.10;;;;;;6251177;22;20307;-88
2021/10/27 04:20:21;;;;;;;10.10;4.93;;;2.00;86.30;;;;;;6251129;22;20098;-87
2021/10/27 04:22:47;;;;;;;9.38;4.60;;;2.00;86.60;;;;;;6251593;22;19992;-87
2021/10/27 04:25:13;;;;;;;9.80;4.93;;;2.00;86.60;;;;;;6251062;22;20386;-88
2021/10/27 04:27:39;;;;;;;9.15;4.35;;;2.00;87.00;;;;;;6251098;22;20078;-88
2021/10/27 04:30:06;;;;;;;8.73;4.53;;;2.00;87.20;;;;;;6250824;22;19996;-88
2021/10/27 04:32:32;;;;;;;9.02;4.63;;;2.00;87.20;;;;;;6251710;22;19996;-87
2021/10/27 04:34:58;;;;;;;9.35;5.10;;;2.00;87.40;;;;;;6251211;22;20002;-88
2021/10/27 04:37:24;;;;;;;14.75;4.70;;;2.00;87.50;;;;;;6251221;22;19996;-88
2021/10/27 04:39:50;;;;;;;7.03;3.70;;;2.00;87.50;;;;;;6278534;22;19992;-88
2021/10/27 04:42:16;;;;;;;8.45;4.68;;;2.00;87.40;;;;;;6251174;22;20014;-88
2021/10/27 04:44:42;;;;;;;8.93;4.30;;;2.00;87.40;;;;;;6251268;22;20082;-88
2021/10/27 04:47:08;;;;;;;6.90;4.25;;;2.10;87.60;;;;;;6278853;22;19999;-88
2021/10/27 04:49:33;;;;;;;9.52;4.78;;;2.10;88.00;;;;;;6278229;22;20003;-89
2021/10/27 04:51:59;;;;;;;8.63;5.28;;;2.10;88.00;;;;;;6251485;22;20086;-89
2021/10/27 04:54:25;;;;;;;9.85;5.00;;;2.10;87.90;;;;;;6251190;22;20030;-89
2021/10/27 04:56:51;;;;;;;11.23;4.70;;;2.10;87.90;;;;;;6250591;22;20000;-89
2021/10/27 04:59:18;;;;;;;11.43;4.45;;;2.10;88.00;;;;;;6278803;22;19998;-89
2021/10/27 05:01:46;;;;;;;9.13;5.30;;;2.10;88.10;;;;;;6251038;22;20003;-88
2021/10/27 05:04:12;;;;;;;11.10;5.75;;;2.10;88.20;;;;;;6251564;22;20418;-88
2021/10/27 05:06:38;;;;;;;13.32;5.32;;;2.10;88.40;;;;;;6250810;22;20064;-89
2021/10/27 05:09:04;;;;;;;10.52;4.32;;;2.20;88.50;;;;;;6251005;22;20022;-89
2021/10/27 05:11:30;;;;;;;14.55;6.32;;;2.20;88.90;;;;;;6251016;22;20095;-88
2021/10/27 05:13:55;;;;;;;12.13;4.53;;;2.20;89.10;;;;;;6250402;22;20015;-88
2021/10/27 05:16:21;;;;;;;10.90;4.47;;;2.30;89.10;;;;;;6250429;22;19999;-88
2021/10/27 05:18:49;;;;;;;11.25;4.60;;;2.40;89.10;;;;;;6250347;22;19996;-87
2021/10/27 05:21:15;;;;;;;13.30;6.40;;;2.50;89.20;;;;;;6250144;22;20416;-88
2021/10/27 05:23:41;;;;;;;10.15;6.43;;;2.50;89.40;;;;;;6250514;22;19999;-88
2021/10/27 05:26:07;;;;;;;15.38;6.40;;;2.70;89.70;;;;;;6250578;22;20023;-89
2021/10/27 05:28:37;;;;;;;13.13;5.97;;;2.80;89.50;;;;;;6250850;22;20054;-89
2021/10/27 05:31:04;;;;;;;13.43;5.68;;;2.90;89.50;;;;;;6250869;22;19999;-89
2021/10/27 05:33:30;;;;;;;9.82;5.63;;;3.00;89.70;;;;;;6250966;22;20001;-89
2021/10/27 05:35:55;;;;;;;8.80;4.47;;;3.20;90.00;;;;;;6250573;22;20026;-88
2021/10/27 05:38:24;;;;;;;10.55;6.20;;;3.30;90.00;;;;;;6250492;22;20338;-90
2021/10/27 05:40:53;;;;;;;11.23;6.22;;;3.50;90.00;;;;;;6250975;22;20300;-90
2021/10/27 05:43:18;;;;;;;12.70;4.85;;;3.60;89.70;;;;;;6250468;22;20069;-90
2021/10/27 05:45:45;;;;;;;10.15;5.40;;;3.70;89.80;;;;;;6250458;22;19992;-89
2021/10/27 05:48:13;;;;;;;7.18;4.47;;;3.80;89.70;;;;;;6225904;22;20360;-89
2021/10/27 05:50:46;;;;;;;12.32;5.18;;;3.90;89.30;;;;;;6251047;22;20069;-89
2021/10/27 05:55:56;;;;;;;9.23;4.82;;;4.00;89.80;;;;;;6277641;22;20053;-90
2021/10/27 05:58:22;;;;;;;11.32;6.18;;;4.10;89.80;;;;;;6250973;22;20066;-88
2021/10/27 06:00:50;;;;;;;11.43;7.57;;;4.20;90.00;;;;;;6252203;22;20053;-90
2021/10/27 06:03:27;;;;;;;11.93;6.13;;;4.30;90.20;;;;;;6252754;22;19995;-90
2021/10/27 06:05:53;;;;;;;16.20;6.70;;;4.30;90.10;;;;;;6253833;22;19996;-89
2021/10/27 06:08:19;;;;;;;15.05;6.25;;;4.40;90.10;;;;;;6252164;22;20007;-89
2021/10/27 06:10:46;;;;;;;12.48;6.93;;;4.40;90.20;;;;;;6252434;22;20084;-89
2021/10/27 06:13:15;;;;;;;9.32;5.07;;;4.50;90.20;;;;;;6253258;22;20000;-89
2021/10/27 06:15:43;;;;;;;11.20;6.70;;;4.50;90.20;;;;;;6252634;22;19996;-89
2021/10/27 06:18:09;;;;;;;8.07;4.95;;;4.50;90.20;;;;;;6252727;22;19998;-89
2021/10/27 06:20:35;;;;;;;10.38;6.13;;;4.60;90.30;;;;;;6252483;22;20003;-89
2021/10/27 06:23:03;;;;;;;11.65;6.10;;;4.60;90.30;;;;;;6251479;22;20284;-90
2021/10/27 06:25:31;;;;;;;10.57;6.05;;;4.60;90.30;;;;;;6252798;22;20461;-90
2021/10/27 06:28:02;;;;;;;13.93;6.82;;;4.70;90.40;;;;;;6252002;22;19995;-90
2021/10/27 06:30:39;;;;;;;16.83;7.35;;;4.70;90.40;;;;;;6253107;22;19999;-90
2021/10/27 06:45:59;;;;;;;11.15;6.85;;;5.20;90.20;;;;;;6279530;22;20295;-92
2021/10/27 06:47:50;;;;;;;21.33;9.85;;;5.30;90.20;;;;;;6278219;22;20031;-90
2021/10/27 06:50:19;;;;;;;20.48;8.82;;;5.40;90.50;;;;;;6243622;22;19999;-91
2021/10/27 06:52:58;;;;;;;15.10;7.78;;;5.40;90.20;;;;;;6252816;22;19995;-91
2021/10/27 06:55:28;;;;;;;12.88;7.30;;;5.50;90.10;;;;;;6253381;22;19995;-91
2021/10/27 07:01:17;;;;;;;;;;;5.50;90.00;;;;;;6238114;22;20004;-92
2021/10/27 07:18:05;;;;;;;10.75;6.20;;;6.20;90.20;;;;;;6279187;22;20071;-91
2021/10/27 07:20:36;;;;;;;11.23;5.78;;;6.30;90.10;;;;;;6251685;22;20007;-90
2021/10/27 07:23:14;;;;;;;;;;;;;;;;;;;;;
2021/10/27 07:25:56;;;;;;;10.68;6.05;;;6.60;89.90;;;;;;6279180;22;20071;-90
2021/10/27 07:28:26;;;;;;;11.02;6.18;;;6.70;89.60;;;;;;6252051;22;20006;-89
2021/10/27 07:31:00;;;;;;;14.55;6.70;;;6.70;89.40;;;;;;6251256;22;20000;-90
2021/10/27 07:33:30;;;;;;;14.32;6.63;;;6.80;89.10;;;;;;6250939;22;20019;-89
2021/10/27 07:42:04;;;;;;;7.70;5.70;;;6.90;88.90;;;;;;6279423;22;20042;-88
2021/10/27 07:44:30;;;;;;;12.40;5.20;;;6.90;88.80;;;;;;6251998;22;19992;-89
2021/10/27 07:46:59;;;;;;;14.70;6.68;;;7.00;88.60;;;;;;6253053;22;20000;-88
2021/10/27 07:49:27;;;;;;;11.93;6.63;;;7.10;88.50;;;;;;6252085;22;20280;-87
2021/10/27 07:51:53;;;;;;;10.98;6.00;;;7.10;88.50;;;;;;6251178;22;20010;-88
2021/10/27 07:54:21;;;;;;;13.25;7.38;;;7.20;88.70;;;;;;6252398;22;20000;-88
2021/10/27 07:56:52;;;;;;;12.57;6.25;;;7.30;88.50;;;;;;6251337;22;20051;-89
2021/10/27 07:59:21;;;;;;;14.50;8.32;;;7.40;88.20;;;;;;6252613;22;20003;-88
2021/10/27 08:01:53;;;;;;;13.93;7.50;;;7.50;88.20;;;;;;6251422;22;20008;-87
2021/10/27 08:04:59;;;;;;;11.02;6.35;;;7.60;88.00;;;;;;6251994;22;19992;-93
2021/10/27 08:08:03;;;;;;;14.20;7.47;;;7.70;87.80;;;;;;6231476;22;20046;-91
2021/10/27 08:10:47;;;;;;;14.13;6.63;;;7.80;87.50;;;;;;6254859;22;19999;-91
2021/10/27 08:14:35;;;;;;;;;;;;;;;;;;;;;
2021/10/27 08:35:40;;;;;;;;;;;;;;;;;;;;;
2021/10/27 08:38:38;;;;;;;11.77;5.35;;;8.50;85.80;;;;;;6073913;23;20089;-91
2021/10/27 10:09:39;;;;;;;7.88;5.72;;;9.90;83.30;;;;;;6132018;23;20002;-94
2021/10/27 10:12:43;;;;;;;;;;;;;;;;;;;;;
2021/10/27 10:15:37;;;;;;;;;;;;;;;;;;;;;
2021/10/27 10:18:37;;;;;;;11.68;5.35;;;10.20;82.90;;;;;;6125393;23;20089;-91
2021/10/27 10:22:06;;;;;;;;;;;;;;;;;;;;;
2021/10/27 10:25:26;;;;;;;;;;;;;;;;;;;;;
2021/10/27 10:29:02;;;;;;;;;;;;;;;;;;;;;
2021/10/27 11:11:34;;;;;;;;;;;;;;;;;;;;;
2021/10/27 12:07:39;;;;;;;6.47;4.18;;;12.40;75.50;;;;;;6281344;22;20482;-93
2021/10/27 12:10:29;;;;;;;11.33;4.27;;;12.40;74.90;;;;;;6278690;22;20067;-92
2021/10/27 13:14:10;;;;;;;8.93;4.22;;;13.00;70.70;;;;;;6095915;23;20009;-92
2021/10/27 17:52:38;;;;;;;;;;;;;;;;;;;;;
2021/10/27 18:01:04;;;;;;;13.75;9.25;;;9.80;84.70;;;;;;6195991;23;20009;-90
2021/10/27 18:04:06;;;;;;;22.85;10.73;;;9.80;85.40;;;;;;6275294;22;20010;-90
2021/10/27 18:06:43;;;;;;;19.88;11.77;;;9.70;87.40;;;;;;6252568;22;20000;-89
2021/10/27 18:09:21;;;;;;;18.98;9.85;;;9.60;88.10;;;;;;6253516;22;19999;-90
2021/10/27 18:12:12;;;;;;;18.50;10.48;;;9.60;86.90;;;;;;6253243;22;20061;-90
2021/10/27 18:14:42;;;;;;;20.27;9.85;;;9.50;88.20;;;;;;6280048;22;20283;-90
2021/10/27 18:17:08;;;;;;;23.60;10.77;;;9.40;86.80;;;;;;6253058;22;19999;-90
2021/10/27 18:37:58;;;;;;;19.40;10.90;;;9.20;92.90;;;;;;6280272;22;20011;-89
2021/10/27 18:40:37;;;;;;;16.35;10.00;;;9.20;92.10;;;;;;6252809;22;20399;-89
2021/10/27 18:43:17;;;;;;;20.35;11.88;;;9.20;92.40;;;;;;6252561;22;20293;-89
2021/10/27 18:45:59;;;;;;;20.42;9.98;;;9.20;92.70;;;;;;6252524;22;20006;-90
2021/10/27 18:48:27;;;;;;;14.88;8.10;;;9.20;93.30;;;;;;6253244;22;20065;-89
2021/10/27 18:51:14;;;;;;;15.90;10.25;;;9.10;92.50;;;;;;6252094;22;20007;-90
2021/10/27 19:11:17;;;;;;;15.13;7.63;;;8.70;92.90;;;;;;6177161;22;20022;-89
2021/10/27 19:17:19;;;;;;;20.73;11.00;;;8.70;94.30;;;;;;6186292;23;20001;-89
2021/10/27 19:20:16;;;;;;;;;;;;;;;;;;;;;
2021/10/27 19:22:55;;;;;;;;;;;;;;;;;;;;;
2021/10/27 19:25:39;;;;;;;11.30;7.10;;;8.80;93.50;;;;;;6279113;22;20090;-89
2021/10/27 19:31:50;;;;;;;14.77;8.35;;;8.80;93.60;;;;;;6289128;22;19999;-89
2021/10/27 20:51:37;;;;;;;14.02;7.53;;;9.40;93.10;;;;;;6288397;22;20023;-89
2021/10/27 20:54:08;;;;;;;12.95;7.95;;;9.40;93.50;;;;;;6277444;22;19996;-89
2021/10/27 20:56:51;;;;;;;14.02;7.95;;;9.40;93.20;;;;;;6276793;22;19996;-89
2021/10/27 20:59:53;;;;;;;12.70;6.57;;;9.40;93.20;;;;;;6277426;22;19996;-89
2021/10/27 21:14:23;;;;;;;12.90;6.25;;;9.40;93.20;;;;;;6277739;22;20031;-88
2021/10/27 21:16:54;;;;;;;11.23;6.05;;;9.40;93.20;;;;;;6276530;22;19996;-88
2021/10/27 21:19:31;;;;;;;14.65;7.53;;;9.40;93.20;;;;;;6276928;22;20000;-88
2021/10/27 21:25:03;;;;;;;12.05;7.10;;;9.30;93.30;;;;;;6235565;22;20438;-88
2021/10/27 21:44:12;;;;;;;10.85;6.75;;;9.20;93.50;;;;;;6280066;22;20141;-89
2021/10/27 21:46:43;;;;;;;10.80;6.28;;;9.20;93.60;;;;;;6278391;22;20118;-89
2021/10/27 21:49:21;;;;;;;11.60;6.53;;;9.20;93.50;;;;;;6278298;22;20003;-89
2021/10/27 21:52:00;;;;;;;;;;;;;;;;;;;;;
2021/10/27 21:55:08;;;;;;;12.80;6.57;;;9.20;93.60;;;;;;6279592;22;20074;-89
2021/10/27 21:57:39;;;;;;;12.60;5.55;;;9.20;93.60;;;;;;6279634;22;20004;-89
2021/10/27 22:00:18;;;;;;;10.10;6.00;;;9.10;93.40;;;;;;6278411;22;19995;-89
2021/10/27 22:02:44;;;;;;;6.95;3.88;;;9.10;93.40;;;;;;6278801;22;20057;-89
2021/10/27 22:05:24;;;;;;;11.70;6.00;;;9.00;93.40;;;;;;6278847;22;20338;-89
2021/10/27 22:07:50;;;;;;;9.95;4.88;;;9.00;93.50;;;;;;6278390;22;20007;-88
2021/10/27 22:10:20;;;;;;;8.30;4.35;;;8.90;93.70;;;;;;6278833;22;20011;-88
2021/10/27 22:12:50;;;;;;;8.15;4.88;;;8.80;93.70;;;;;;6278241;22;20046;-88
2021/10/27 22:15:19;;;;;;;6.75;4.30;;;8.80;93.70;;;;;;6278666;22;19999;-89
2021/10/27 22:17:53;;;;;;;9.85;5.68;;;8.70;93.60;;;;;;6278853;22;20002;-89
2021/10/27 22:20:46;;;;;;;11.13;6.25;;;8.60;93.70;;;;;;6278764;22;20087;-89
2021/10/27 22:23:23;;;;;;;10.40;5.28;;;8.50;93.80;;;;;;6279509;22;20071;-89
2021/10/27 22:26:21;;;;;;;10.60;4.63;;;8.40;93.80;;;;;;6277781;22;20053;-89
2021/10/27 22:28:56;;;;;;;9.82;5.43;;;8.30;93.90;;;;;;6279247;22;19988;-88
2021/10/27 22:31:34;;;;;;;8.73;5.03;;;8.20;94.00;;;;;;6278137;22;20000;-88
2021/10/27 22:34:03;;;;;;;10.90;6.25;;;8.10;94.00;;;;;;6278008;22;20086;-89
2021/10/27 22:36:34;;;;;;;8.50;4.45;;;8.00;94.20;;;;;;6278426;22;20046;-89
2021/10/27 22:39:13;;;;;;;8.98;4.80;;;7.90;94.30;;;;;;6278217;22;19996;-88
2021/10/27 22:41:41;;;;;;;10.55;4.75;;;7.80;94.50;;;;;;6276721;22;20046;-88
2021/10/27 22:44:14;;;;;;;13.80;5.60;;;7.70;94.70;;;;;;6277688;22;20346;-89
2021/10/27 22:46:45;;;;;;;10.65;5.28;;;7.70;94.80;;;;;;6279260;22;19992;-88
2021/10/27 22:52:20;;;;;;;9.27;4.50;;;7.50;95.00;;;;;;6280378;22;20003;-88
2021/10/27 22:55:00;;;;;;;10.10;5.13;;;7.40;95.40;;;;;;6278789;22;20031;-89
2021/10/27 22:57:42;;;;;;;12.45;5.88;;;7.40;95.50;;;;;;6277923;22;20003;-88
2021/10/27 23:00:27;;;;;;;8.32;4.53;;;7.30;95.70;;;;;;6277539;22;20038;-88
2021/10/27 23:05:39;;;;;;;9.30;4.75;;;7.30;95.80;;;;;;6279325;22;20411;-89
2021/10/27 23:08:35;;;;;;;8.77;5.00;;;7.30;96.00;;;;;;6277966;22;19996;-88
2021/10/27 23:40:16;;;;;;;6.75;4.00;;;7.10;97.10;;;;;;6218765;23;20122;-89
2021/10/27 23:43:05;;;;;;;9.88;5.15;;;7.10;97.20;;;;;;6216893;23;20013;-89
2021/10/27 23:45:43;;;;;;;;;;;;;;;;;;;;;
2021/10/27 23:48:22;;;;;;;10.73;4.90;;;7.00;97.50;;;;;;6282015;22;20030;-89
2021/10/27 23:51:02;;;;;;;;;;;;;;;;;;;;;
2021/10/27 23:54:12;;;;;;;9.45;5.50;;;6.90;97.30;;;;;;6279336;22;20106;-89
2021/10/27 23:56:53;;;;;;;7.25;3.90;;;6.90;97.50;;;;;;6277143;22;20049;-89
